sensor_id;sensor_type;location;lat;lon;timestamp;temperature;humidity
7920;DHT22;18778;47.610;9.776;2023-06-22T00:03:21;20.40;99.90
7920;DHT22;18778;47.610;9.776;2023-06-22T00:08:14;20.40;99.90
7920;DHT22;18778;47.610;9.776;2023-06-22T00:13:06;20.40;99.90
7920;DHT22;18778;47.610;9.776;2023-06-22T00:15:32;21.20;99.90
7920;DHT22;18778;47.610;9.776;2023-06-22T00:17:58;20.30;99.90
7920;DHT22;18778;47.610;9.776;2023-06-22T00:20:24;20.30;99.90
7920;DHT22;18778;47.610;9.776;2023-06-22T00:22:57;20.30;99.90
7920;DHT22;18778;47.610;9.776;2023-06-22T00:25:23;20.30;99.90
7920;DHT22;18778;47.610;9.776;2023-06-22T00:27:49;20.30;99.90
7920;DHT22;18778;47.610;9.776;2023-06-22T00:30:19;20.10;99.90
7920;DHT22;18778;47.610;9.776;2023-06-22T00:32:45;20.10;99.90
7920;DHT22;18778;47.610;9.776;2023-06-22T00:35:14;20.10;99.90
7920;DHT22;18778;47.610;9.776;2023-06-22T00:37:40;20.40;99.90
7920;DHT22;18778;47.610;9.776;2023-06-22T00:40:09;20.60;99.90
7920;DHT22;18778;47.610;9.776;2023-06-22T00:42:40;20.00;99.90
7920;DHT22;18778;47.610;9.776;2023-06-22T00:45:06;23.10;99.90
7920;DHT22;18778;47.610;9.776;2023-06-22T00:47:34;19.80;99.90
7920;DHT22;18778;47.610;9.776;2023-06-22T00:50:00;19.80;99.90
7920;DHT22;18778;47.610;9.776;2023-06-22T00:52:26;19.80;99.90
7920;DHT22;18778;47.610;9.776;2023-06-22T00:54:58;19.70;99.90
7920;DHT22;18778;47.610;9.776;2023-06-22T00:57:28;19.70;99.90
7920;DHT22;18778;47.610;9.776;2023-06-22T00:59:54;19.70;99.90
7920;DHT22;18778;47.610;9.776;2023-06-22T01:02:20;20.40;99.90
7920;DHT22;18778;47.610;9.776;2023-06-22T01:04:45;19.60;99.90
7920;DHT22;18778;47.610;9.776;2023-06-22T01:07:34;19.60;99.90
7920;DHT22;18778;47.610;9.776;2023-06-22T01:15:53;21.40;99.90
7920;DHT22;18778;47.610;9.776;2023-06-22T01:18:22;19.50;99.90
7920;DHT22;18778;47.610;9.776;2023-06-22T01:20:52;19.50;99.90
7920;DHT22;18778;47.610;9.776;2023-06-22T01:23:51;22.30;99.90
7920;DHT22;18778;47.610;9.776;2023-06-22T01:26:35;19.40;99.90
7920;DHT22;18778;47.610;9.776;2023-06-22T01:29:04;19.20;99.90
7920;DHT22;18778;47.610;9.776;2023-06-22T01:31:31;19.20;99.90
7920;DHT22;18778;47.610;9.776;2023-06-22T01:34:00;19.10;99.90
7920;DHT22;18778;47.610;9.776;2023-06-22T01:38:53;18.90;99.90
7920;DHT22;18778;47.610;9.776;2023-06-22T01:41:20;18.80;99.90
7920;DHT22;18778;47.610;9.776;2023-06-22T01:43:47;19.80;99.90
7920;DHT22;18778;47.610;9.776;2023-06-22T01:51:06;18.30;99.90
7920;DHT22;18778;47.610;9.776;2023-06-22T01:53:32;19.30;99.90
7920;DHT22;18778;47.610;9.776;2023-06-22T01:55:58;18.30;99.90
7920;DHT22;18778;47.610;9.776;2023-06-22T01:58:27;18.30;99.90
7920;DHT22;18778;47.610;9.776;2023-06-22T02:01:14;18.10;99.90
7920;DHT22;18778;47.610;9.776;2023-06-22T02:03:49;18.20;99.90
7920;DHT22;18778;47.610;9.776;2023-06-22T02:06:25;18.10;99.90
7920;DHT22;18778;47.610;9.776;2023-06-22T02:08:57;18.00;99.90
7920;DHT22;18778;47.610;9.776;2023-06-22T02:11:26;17.90;99.90
7920;DHT22;18778;47.610;9.776;2023-06-22T02:13:53;18.00;99.90
7920;DHT22;18778;47.610;9.776;2023-06-22T02:18:49;17.90;99.90
7920;DHT22;18778;47.610;9.776;2023-06-22T02:23:44;17.90;99.90
7920;DHT22;18778;47.610;9.776;2023-06-22T02:26:10;17.90;99.90
7920;DHT22;18778;47.610;9.776;2023-06-22T02:28:36;17.80;99.90
7920;DHT22;18778;47.610;9.776;2023-06-22T02:33:27;17.60;99.90
7920;DHT22;18778;47.610;9.776;2023-06-22T02:35:53;17.50;99.90
7920;DHT22;18778;47.610;9.776;2023-06-22T02:38:19;17.50;99.90
7920;DHT22;18778;47.610;9.776;2023-06-22T02:45:37;17.60;99.90
7920;DHT22;18778;47.610;9.776;2023-06-22T02:50:28;17.70;99.90
7920;DHT22;18778;47.610;9.776;2023-06-22T02:52:54;17.70;99.90
7920;DHT22;18778;47.610;9.776;2023-06-22T02:57:45;17.70;99.90
7920;DHT22;18778;47.610;9.776;2023-06-22T03:00:13;17.80;99.90
7920;DHT22;18778;47.610;9.776;2023-06-22T03:02:44;17.80;99.90
7920;DHT22;18778;47.610;9.776;2023-06-22T03:07:41;17.80;99.90
7920;DHT22;18778;47.610;9.776;2023-06-22T03:10:11;17.90;99.90
7920;DHT22;18778;47.610;9.776;2023-06-22T03:12:38;17.90;99.90
7920;DHT22;18778;47.610;9.776;2023-06-22T03:15:09;17.70;99.90
7920;DHT22;18778;47.610;9.776;2023-06-22T03:17:35;17.70;99.90
7920;DHT22;18778;47.610;9.776;2023-06-22T03:20:04;17.60;99.90
7920;DHT22;18778;47.610;9.776;2023-06-22T03:22:40;17.70;99.90
7920;DHT22;18778;47.610;9.776;2023-06-22T03:25:10;21.60;99.90
7920;DHT22;18778;47.610;9.776;2023-06-22T03:27:44;17.60;99.90
7920;DHT22;18778;47.610;9.776;2023-06-22T03:30:11;17.70;99.90
7920;DHT22;18778;47.610;9.776;2023-06-22T03:32:37;17.60;99.90
7920;DHT22;18778;47.610;9.776;2023-06-22T03:35:03;17.60;99.90
7920;DHT22;18778;47.610;9.776;2023-06-22T03:39:54;17.60;99.90
7920;DHT22;18778;47.610;9.776;2023-06-22T03:44:46;17.30;99.90
7920;DHT22;18778;47.610;9.776;2023-06-22T03:47:12;17.30;99.90
7920;DHT22;18778;47.610;9.776;2023-06-22T03:49:38;17.30;99.90
7920;DHT22;18778;47.610;9.776;2023-06-22T03:52:04;17.40;99.90
7920;DHT22;18778;47.610;9.776;2023-06-22T03:56:58;17.50;99.90
7920;DHT22;18778;47.610;9.776;2023-06-22T03:59:24;17.50;99.90
7920;DHT22;18778;47.610;9.776;2023-06-22T04:01:50;21.20;99.90
7920;DHT22;18778;47.610;9.776;2023-06-22T04:04:17;17.80;99.90
7920;DHT22;18778;47.610;9.776;2023-06-22T04:06:43;19.70;99.90
7920;DHT22;18778;47.610;9.776;2023-06-22T04:09:08;17.80;99.90
7920;DHT22;18778;47.610;9.776;2023-06-22T04:11:34;18.00;99.90
7920;DHT22;18778;47.610;9.776;2023-06-22T04:14:00;18.00;99.90
7920;DHT22;18778;47.610;9.776;2023-06-22T04:16:25;18.00;99.90
7920;DHT22;18778;47.610;9.776;2023-06-22T04:18:51;20.50;99.90
7920;DHT22;18778;47.610;9.776;2023-06-22T04:21:16;17.90;99.90
7920;DHT22;18778;47.610;9.776;2023-06-22T04:23:42;17.90;99.90
7920;DHT22;18778;47.610;9.776;2023-06-22T04:26:08;17.90;99.90
7920;DHT22;18778;47.610;9.776;2023-06-22T04:28:34;17.90;99.90
7920;DHT22;18778;47.610;9.776;2023-06-22T04:31:01;17.90;99.90
7920;DHT22;18778;47.610;9.776;2023-06-22T04:33:28;19.20;99.90
7920;DHT22;18778;47.610;9.776;2023-06-22T04:38:23;17.80;99.90
7920;DHT22;18778;47.610;9.776;2023-06-22T04:40:49;18.90;99.90
7920;DHT22;18778;47.610;9.776;2023-06-22T04:43:15;17.80;99.90
7920;DHT22;18778;47.610;9.776;2023-06-22T04:45:41;17.90;99.90
7920;DHT22;18778;47.610;9.776;2023-06-22T04:48:07;19.10;99.90
7920;DHT22;18778;47.610;9.776;2023-06-22T04:50:36;21.10;99.90
7920;DHT22;18778;47.610;9.776;2023-06-22T04:53:04;18.00;99.90
7920;DHT22;18778;47.610;9.776;2023-06-22T04:55:31;18.00;99.90
7920;DHT22;18778;47.610;9.776;2023-06-22T05:05:23;18.60;99.90
7920;DHT22;18778;47.610;9.776;2023-06-22T05:07:50;18.80;99.90
7920;DHT22;18778;47.610;9.776;2023-06-22T05:10:19;21.20;99.90
7920;DHT22;18778;47.610;9.776;2023-06-22T05:12:45;19.00;99.90
7920;DHT22;18778;47.610;9.776;2023-06-22T05:17:37;19.20;99.90
7920;DHT22;18778;47.610;9.776;2023-06-22T05:20:09;19.30;99.90
7920;DHT22;18778;47.610;9.776;2023-06-22T05:22:36;19.30;99.90
7920;DHT22;18778;47.610;9.776;2023-06-22T05:25:01;19.40;99.90
7920;DHT22;18778;47.610;9.776;2023-06-22T05:27:27;19.50;99.90
7920;DHT22;18778;47.610;9.776;2023-06-22T05:29:53;19.60;99.90
7920;DHT22;18778;47.610;9.776;2023-06-22T05:32:18;19.50;99.90
7920;DHT22;18778;47.610;9.776;2023-06-22T05:34:44;19.60;99.90
7920;DHT22;18778;47.610;9.776;2023-06-22T05:37:09;20.40;99.90
7920;DHT22;18778;47.610;9.776;2023-06-22T05:39:35;19.80;99.90
7920;DHT22;18778;47.610;9.776;2023-06-22T05:42:04;22.10;99.90
7920;DHT22;18778;47.610;9.776;2023-06-22T05:44:30;20.00;99.90
7920;DHT22;18778;47.610;9.776;2023-06-22T05:46:55;20.70;99.90
7920;DHT22;18778;47.610;9.776;2023-06-22T05:49:21;20.10;99.90
7920;DHT22;18778;47.610;9.776;2023-06-22T05:51:47;20.30;99.90
7920;DHT22;18778;47.610;9.776;2023-06-22T05:54:13;20.30;99.90
7920;DHT22;18778;47.610;9.776;2023-06-22T05:59:07;20.40;99.90
7920;DHT22;18778;47.610;9.776;2023-06-22T06:01:32;22.20;99.90
7920;DHT22;18778;47.610;9.776;2023-06-22T06:04:04;20.60;99.90
7920;DHT22;18778;47.610;9.776;2023-06-22T06:08:56;20.70;99.90
7920;DHT22;18778;47.610;9.776;2023-06-22T06:11:22;23.80;99.90
7920;DHT22;18778;47.610;9.776;2023-06-22T06:13:48;21.00;99.90
7920;DHT22;18778;47.610;9.776;2023-06-22T06:16:13;21.00;99.90
7920;DHT22;18778;47.610;9.776;2023-06-22T06:18:39;21.20;99.90
7920;DHT22;18778;47.610;9.776;2023-06-22T06:21:04;24.80;99.90
7920;DHT22;18778;47.610;9.776;2023-06-22T06:25:56;21.40;99.90
7920;DHT22;18778;47.610;9.776;2023-06-22T06:28:22;21.50;99.90
7920;DHT22;18778;47.610;9.776;2023-06-22T06:30:47;21.60;99.90
7920;DHT22;18778;47.610;9.776;2023-06-22T06:33:13;21.70;99.90
7920;DHT22;18778;47.610;9.776;2023-06-22T06:35:39;21.80;99.90
7920;DHT22;18778;47.610;9.776;2023-06-22T06:40:30;21.90;99.90
7920;DHT22;18778;47.610;9.776;2023-06-22T06:42:56;22.00;99.90
7920;DHT22;18778;47.610;9.776;2023-06-22T06:45:23;22.00;99.90
7920;DHT22;18778;47.610;9.776;2023-06-22T06:47:50;22.10;99.90
7920;DHT22;18778;47.610;9.776;2023-06-22T06:52:42;22.30;99.90
7920;DHT22;18778;47.610;9.776;2023-06-22T06:55:08;22.40;99.90
7920;DHT22;18778;47.610;9.776;2023-06-22T07:00:07;22.60;99.90
7920;DHT22;18778;47.610;9.776;2023-06-22T07:02:38;22.60;99.90
7920;DHT22;18778;47.610;9.776;2023-06-22T07:05:04;23.10;99.90
7920;DHT22;18778;47.610;9.776;2023-06-22T07:07:31;22.90;99.90
7920;DHT22;18778;47.610;9.776;2023-06-22T07:14:48;23.30;99.90
7920;DHT22;18778;47.610;9.776;2023-06-22T07:19:41;23.50;99.90
7920;DHT22;18778;47.610;9.776;2023-06-22T07:22:07;23.60;99.90
7920;DHT22;18778;47.610;9.776;2023-06-22T07:24:33;23.60;99.90
7920;DHT22;18778;47.610;9.776;2023-06-22T07:29:25;23.80;99.90
7920;DHT22;18778;47.610;9.776;2023-06-22T07:31:52;23.90;99.90
7920;DHT22;18778;47.610;9.776;2023-06-22T07:34:17;24.00;99.90
7920;DHT22;18778;47.610;9.776;2023-06-22T07:36:43;24.00;99.90
7920;DHT22;18778;47.610;9.776;2023-06-22T07:39:09;24.10;99.90
7920;DHT22;18778;47.610;9.776;2023-06-22T07:41:35;24.20;99.90
7920;DHT22;18778;47.610;9.776;2023-06-22T07:44:02;24.50;99.90
7920;DHT22;18778;47.610;9.776;2023-06-22T07:46:28;25.00;99.90
7920;DHT22;18778;47.610;9.776;2023-06-22T07:48:56;24.50;99.90
7920;DHT22;18778;47.610;9.776;2023-06-22T07:51:21;24.60;99.90
7920;DHT22;18778;47.610;9.776;2023-06-22T07:53:47;24.50;99.90
7920;DHT22;18778;47.610;9.776;2023-06-22T07:56:13;24.80;99.90
7920;DHT22;18778;47.610;9.776;2023-06-22T07:58:44;24.70;99.90
7920;DHT22;18778;47.610;9.776;2023-06-22T08:01:10;24.80;99.90
7920;DHT22;18778;47.610;9.776;2023-06-22T08:03:36;24.40;99.90
7920;DHT22;18778;47.610;9.776;2023-06-22T08:06:03;25.30;99.90
7920;DHT22;18778;47.610;9.776;2023-06-22T08:13:20;25.40;99.90
7920;DHT22;18778;47.610;9.776;2023-06-22T08:18:12;25.60;99.90
7920;DHT22;18778;47.610;9.776;2023-06-22T08:20:37;25.90;99.90
7920;DHT22;18778;47.610;9.776;2023-06-22T08:23:03;26.20;99.90
7920;DHT22;18778;47.610;9.776;2023-06-22T08:25:33;26.10;99.90
7920;DHT22;18778;47.610;9.776;2023-06-22T08:30:25;26.30;99.90
7920;DHT22;18778;47.610;9.776;2023-06-22T08:32:51;26.50;99.90
7920;DHT22;18778;47.610;9.776;2023-06-22T08:35:17;26.50;99.90
7920;DHT22;18778;47.610;9.776;2023-06-22T08:37:42;26.70;99.90
7920;DHT22;18778;47.610;9.776;2023-06-22T08:40:09;26.80;99.90
7920;DHT22;18778;47.610;9.776;2023-06-22T08:45:02;26.70;99.90
7920;DHT22;18778;47.610;9.776;2023-06-22T08:47:28;26.80;99.90
7920;DHT22;18778;47.610;9.776;2023-06-22T08:54:46;26.30;99.90
7920;DHT22;18778;47.610;9.776;2023-06-22T08:57:12;26.00;99.90
7920;DHT22;18778;47.610;9.776;2023-06-22T08:59:38;25.90;99.90
7920;DHT22;18778;47.610;9.776;2023-06-22T09:02:05;25.80;99.90
7920;DHT22;18778;47.610;9.776;2023-06-22T09:04:30;25.60;99.90
7920;DHT22;18778;47.610;9.776;2023-06-22T09:07:00;24.30;99.90
7920;DHT22;18778;47.610;9.776;2023-06-22T09:09:26;25.50;99.90
7920;DHT22;18778;47.610;9.776;2023-06-22T09:14:18;25.60;99.90
7920;DHT22;18778;47.610;9.776;2023-06-22T09:16:44;24.40;99.90
7920;DHT22;18778;47.610;9.776;2023-06-22T09:19:11;25.70;99.90
7920;DHT22;18778;47.610;9.776;2023-06-22T09:21:37;25.90;99.90
7920;DHT22;18778;47.610;9.776;2023-06-22T09:24:03;25.90;99.90
7920;DHT22;18778;47.610;9.776;2023-06-22T09:26:28;25.90;99.90
7920;DHT22;18778;47.610;9.776;2023-06-22T09:31:20;25.80;99.90
7920;DHT22;18778;47.610;9.776;2023-06-22T09:33:54;25.70;99.90
7920;DHT22;18778;47.610;9.776;2023-06-22T09:36:22;25.60;99.90
7920;DHT22;18778;47.610;9.776;2023-06-22T09:38:49;25.60;99.90
7920;DHT22;18778;47.610;9.776;2023-06-22T09:41:20;25.90;99.90
7920;DHT22;18778;47.610;9.776;2023-06-22T09:43:46;25.90;99.90
7920;DHT22;18778;47.610;9.776;2023-06-22T09:46:11;26.20;99.90
7920;DHT22;18778;47.610;9.776;2023-06-22T09:51:03;26.40;99.90
7920;DHT22;18778;47.610;9.776;2023-06-22T09:53:28;26.40;99.90
7920;DHT22;18778;47.610;9.776;2023-06-22T09:55:54;26.60;99.90
7920;DHT22;18778;47.610;9.776;2023-06-22T09:58:20;26.90;99.90
7920;DHT22;18778;47.610;9.776;2023-06-22T10:00:46;26.90;99.90
7920;DHT22;18778;47.610;9.776;2023-06-22T10:03:11;27.20;99.90
7920;DHT22;18778;47.610;9.776;2023-06-22T10:05:37;27.60;99.90
7920;DHT22;18778;47.610;9.776;2023-06-22T10:08:02;28.10;99.90
7920;DHT22;18778;47.610;9.776;2023-06-22T10:10:28;28.10;99.90
7920;DHT22;18778;47.610;9.776;2023-06-22T10:13:02;28.20;99.90
7920;DHT22;18778;47.610;9.776;2023-06-22T10:15:28;28.20;99.90
7920;DHT22;18778;47.610;9.776;2023-06-22T10:17:53;28.10;99.90
7920;DHT22;18778;47.610;9.776;2023-06-22T10:20:19;28.00;99.90
7920;DHT22;18778;47.610;9.776;2023-06-22T10:22:46;28.00;99.90
7920;DHT22;18778;47.610;9.776;2023-06-22T10:25:13;27.90;99.90
7920;DHT22;18778;47.610;9.776;2023-06-22T10:27:39;27.60;99.90
7920;DHT22;18778;47.610;9.776;2023-06-22T10:30:08;27.80;99.90
7920;DHT22;18778;47.610;9.776;2023-06-22T10:37:27;28.00;99.90
7920;DHT22;18778;47.610;9.776;2023-06-22T10:39:53;27.80;99.90
7920;DHT22;18778;47.610;9.776;2023-06-22T10:42:18;28.20;99.90
7920;DHT22;18778;47.610;9.776;2023-06-22T10:47:10;29.10;99.90
7920;DHT22;18778;47.610;9.776;2023-06-22T10:49:40;29.50;99.90
7920;DHT22;18778;47.610;9.776;2023-06-22T10:52:07;30.20;99.90
7920;DHT22;18778;47.610;9.776;2023-06-22T11:01:53;29.80;99.90
7920;DHT22;18778;47.610;9.776;2023-06-22T11:06:48;30.00;99.90
7920;DHT22;18778;47.610;9.776;2023-06-22T11:09:14;30.00;99.90
7920;DHT22;18778;47.610;9.776;2023-06-22T11:14:09;30.20;99.90
7920;DHT22;18778;47.610;9.776;2023-06-22T11:16:35;30.30;99.90
7920;DHT22;18778;47.610;9.776;2023-06-22T11:23:54;30.30;99.90
7920;DHT22;18778;47.610;9.776;2023-06-22T11:28:46;29.90;99.90
7920;DHT22;18778;47.610;9.776;2023-06-22T11:31:12;30.30;99.90
7920;DHT22;18778;47.610;9.776;2023-06-22T11:33:38;30.30;99.90
7920;DHT22;18778;47.610;9.776;2023-06-22T11:36:04;30.60;99.90
7920;DHT22;18778;47.610;9.776;2023-06-22T11:38:30;30.40;99.90
7920;DHT22;18778;47.610;9.776;2023-06-22T11:40:57;30.20;99.90
7920;DHT22;18778;47.610;9.776;2023-06-22T11:43:23;30.80;99.90
7920;DHT22;18778;47.610;9.776;2023-06-22T11:50:41;31.30;99.90
7920;DHT22;18778;47.610;9.776;2023-06-22T11:57:59;31.80;99.90
7920;DHT22;18778;47.610;9.776;2023-06-22T12:00:28;31.80;99.90
7920;DHT22;18778;47.610;9.776;2023-06-22T12:02:55;31.80;99.90
7920;DHT22;18778;47.610;9.776;2023-06-22T12:07:48;31.40;99.90
7920;DHT22;18778;47.610;9.776;2023-06-22T12:10:14;31.30;99.70
7920;DHT22;18778;47.610;9.776;2023-06-22T12:12:40;31.40;99.90
7920;DHT22;18778;47.610;9.776;2023-06-22T12:15:07;31.50;99.90
7920;DHT22;18778;47.610;9.776;2023-06-22T12:17:33;31.50;99.70
7920;DHT22;18778;47.610;9.776;2023-06-22T12:22:25;31.10;99.30
7920;DHT22;18778;47.610;9.776;2023-06-22T12:24:51;30.80;99.90
7920;DHT22;18778;47.610;9.776;2023-06-22T12:27:17;30.70;99.90
7920;DHT22;18778;47.610;9.776;2023-06-22T12:29:46;30.50;99.70
7920;DHT22;18778;47.610;9.776;2023-06-22T12:32:12;30.80;99.90
7920;DHT22;18778;47.610;9.776;2023-06-22T12:34:39;30.60;99.90
7920;DHT22;18778;47.610;9.776;2023-06-22T12:37:05;30.60;99.90
7920;DHT22;18778;47.610;9.776;2023-06-22T12:39:31;30.40;99.10
7920;DHT22;18778;47.610;9.776;2023-06-22T12:41:57;30.30;99.90
7920;DHT22;18778;47.610;9.776;2023-06-22T12:44:23;30.10;99.70
7920;DHT22;18778;47.610;9.776;2023-06-22T12:46:48;30.10;99.70
7920;DHT22;18778;47.610;9.776;2023-06-22T12:49:14;30.10;99.80
7920;DHT22;18778;47.610;9.776;2023-06-22T12:51:41;30.10;99.90
7920;DHT22;18778;47.610;9.776;2023-06-22T12:56:33;30.40;99.90
7920;DHT22;18778;47.610;9.776;2023-06-22T12:58:59;30.80;99.90
7920;DHT22;18778;47.610;9.776;2023-06-22T13:01:27;31.00;98.30
7920;DHT22;18778;47.610;9.776;2023-06-22T13:03:53;31.10;98.80
7920;DHT22;18778;47.610;9.776;2023-06-22T13:06:19;31.00;98.70
7920;DHT22;18778;47.610;9.776;2023-06-22T13:08:45;31.10;99.90
7920;DHT22;18778;47.610;9.776;2023-06-22T13:11:10;31.20;99.10
7920;DHT22;18778;47.610;9.776;2023-06-22T13:13:40;31.60;97.80
7920;DHT22;18778;47.610;9.776;2023-06-22T13:16:05;31.60;97.90
7920;DHT22;18778;47.610;9.776;2023-06-22T13:18:31;31.80;97.40
7920;DHT22;18778;47.610;9.776;2023-06-22T13:20:57;31.90;96.70
7920;DHT22;18778;47.610;9.776;2023-06-22T13:23:23;32.00;97.40
7920;DHT22;18778;47.610;9.776;2023-06-22T13:25:49;32.10;95.80
7920;DHT22;18778;47.610;9.776;2023-06-22T13:28:14;32.40;94.50
7920;DHT22;18778;47.610;9.776;2023-06-22T13:30:41;32.50;94.00
7920;DHT22;18778;47.610;9.776;2023-06-22T13:33:08;32.60;94.10
7920;DHT22;18778;47.610;9.776;2023-06-22T13:42:52;33.10;94.30
7920;DHT22;18778;47.610;9.776;2023-06-22T13:45:18;33.20;94.40
7920;DHT22;18778;47.610;9.776;2023-06-22T14:49:04;32.20;93.80
7920;DHT22;18778;47.610;9.776;2023-06-22T14:51:30;31.40;95.10
7920;DHT22;18778;47.610;9.776;2023-06-22T14:53:55;30.70;96.90
7920;DHT22;18778;47.610;9.776;2023-06-22T14:56:21;30.10;97.60
7920;DHT22;18778;47.610;9.776;2023-06-22T14:58:47;29.30;99.70
7920;DHT22;18778;47.610;9.776;2023-06-22T15:01:12;29.10;99.90
7920;DHT22;18778;47.610;9.776;2023-06-22T15:03:38;29.00;99.90
7920;DHT22;18778;47.610;9.776;2023-06-22T15:13:31;28.60;99.90
7920;DHT22;18778;47.610;9.776;2023-06-22T15:28:11;28.00;99.90
7920;DHT22;18778;47.610;9.776;2023-06-22T15:33:03;27.40;99.90
7920;DHT22;18778;47.610;9.776;2023-06-22T15:40:20;27.30;99.90
7920;DHT22;18778;47.610;9.776;2023-06-22T15:45:13;27.20;99.90
7920;DHT22;18778;47.610;9.776;2023-06-22T15:47:38;27.30;99.90
7920;DHT22;18778;47.610;9.776;2023-06-22T15:54:56;27.70;99.90
7920;DHT22;18778;47.610;9.776;2023-06-22T15:57:24;27.90;99.90
7920;DHT22;18778;47.610;9.776;2023-06-22T16:09:37;29.90;99.90
7920;DHT22;18778;47.610;9.776;2023-06-22T16:12:03;29.80;99.90
7920;DHT22;18778;47.610;9.776;2023-06-22T16:14:30;29.70;99.90
7920;DHT22;18778;47.610;9.776;2023-06-22T16:16:56;29.70;99.90
7920;DHT22;18778;47.610;9.776;2023-06-22T16:21:47;30.30;99.90
7920;DHT22;18778;47.610;9.776;2023-06-22T16:26:43;31.70;98.10
7920;DHT22;18778;47.610;9.776;2023-06-22T16:29:09;31.70;98.00
7920;DHT22;18778;47.610;9.776;2023-06-22T16:34:02;33.30;94.40
7920;DHT22;18778;47.610;9.776;2023-06-22T16:58:56;29.10;92.30
7920;DHT22;18778;47.610;9.776;2023-06-22T17:06:51;28.30;91.90
7920;DHT22;18778;47.610;9.776;2023-06-22T17:09:19;28.00;93.30
7920;DHT22;18778;47.610;9.776;2023-06-22T17:11:45;27.70;92.30
7920;DHT22;18778;47.610;9.776;2023-06-22T17:14:11;27.20;93.00
7920;DHT22;18778;47.610;9.776;2023-06-22T17:16:37;27.20;92.70
7920;DHT22;18778;47.610;9.776;2023-06-22T17:19:06;27.00;93.50
7920;DHT22;18778;47.610;9.776;2023-06-22T17:21:31;26.90;93.50
7920;DHT22;18778;47.610;9.776;2023-06-22T17:24:03;26.80;93.80
7920;DHT22;18778;47.610;9.776;2023-06-22T17:26:30;26.60;94.70
7920;DHT22;18778;47.610;9.776;2023-06-22T17:28:56;26.50;95.90
7920;DHT22;18778;47.610;9.776;2023-06-22T17:31:36;26.40;96.60
7920;DHT22;18778;47.610;9.776;2023-06-22T17:34:21;26.30;97.20
7920;DHT22;18778;47.610;9.776;2023-06-22T17:36:50;26.20;97.90
7920;DHT22;18778;47.610;9.776;2023-06-22T17:39:21;26.20;98.80
7920;DHT22;18778;47.610;9.776;2023-06-22T17:41:48;26.10;99.20
7920;DHT22;18778;47.610;9.776;2023-06-22T17:44:19;25.90;99.90
7920;DHT22;18778;47.610;9.776;2023-06-22T17:46:45;25.80;99.90
7920;DHT22;18778;47.610;9.776;2023-06-22T17:49:12;25.70;99.90
7920;DHT22;18778;47.610;9.776;2023-06-22T17:51:42;25.50;99.90
7920;DHT22;18778;47.610;9.776;2023-06-22T17:56:35;25.30;99.30
7920;DHT22;18778;47.610;9.776;2023-06-22T18:01:37;24.80;97.50
7920;DHT22;18778;47.610;9.776;2023-06-22T18:04:07;24.50;98.40
7920;DHT22;18778;47.610;9.776;2023-06-22T18:06:36;24.30;99.20
7920;DHT22;18778;47.610;9.776;2023-06-22T18:09:03;24.30;99.30
7920;DHT22;18778;47.610;9.776;2023-06-22T18:11:47;23.90;99.90
7920;DHT22;18778;47.610;9.776;2023-06-22T18:14:18;23.60;99.90
7920;DHT22;18778;47.610;9.776;2023-06-22T18:16:46;23.30;99.90
7920;DHT22;18778;47.610;9.776;2023-06-22T18:19:13;23.30;99.90
7920;DHT22;18778;47.610;9.776;2023-06-22T18:21:40;23.10;99.90
7920;DHT22;18778;47.610;9.776;2023-06-22T18:24:06;22.90;99.90
7920;DHT22;18778;47.610;9.776;2023-06-22T18:26:31;22.80;99.90
7920;DHT22;18778;47.610;9.776;2023-06-22T18:31:24;22.80;99.90
7920;DHT22;18778;47.610;9.776;2023-06-22T18:33:52;22.70;99.90
7920;DHT22;18778;47.610;9.776;2023-06-22T18:36:25;22.60;99.90
7920;DHT22;18778;47.610;9.776;2023-06-22T18:38:52;22.70;99.90
7920;DHT22;18778;47.610;9.776;2023-06-22T18:41:42;22.60;99.90
7920;DHT22;18778;47.610;9.776;2023-06-22T18:44:21;22.40;99.90
7920;DHT22;18778;47.610;9.776;2023-06-22T18:46:51;22.20;99.90
7920;DHT22;18778;47.610;9.776;2023-06-22T18:49:25;22.20;99.90
7920;DHT22;18778;47.610;9.776;2023-06-22T18:57:20;22.10;99.90
7920;DHT22;18778;47.610;9.776;2023-06-22T19:02:15;22.00;99.90
7920;DHT22;18778;47.610;9.776;2023-06-22T19:04:42;21.90;99.90
7920;DHT22;18778;47.610;9.776;2023-06-22T19:12:21;21.70;99.90
7920;DHT22;18778;47.610;9.776;2023-06-22T19:15:09;21.70;99.90
7920;DHT22;18778;47.610;9.776;2023-06-22T19:17:41;21.70;99.90
7920;DHT22;18778;47.610;9.776;2023-06-22T19:22:47;21.60;99.90
7920;DHT22;18778;47.610;9.776;2023-06-22T19:25:20;21.50;99.90
7920;DHT22;18778;47.610;9.776;2023-06-22T19:27:56;21.50;99.90
7920;DHT22;18778;47.610;9.776;2023-06-22T19:30:23;21.50;99.90
7920;DHT22;18778;47.610;9.776;2023-06-22T19:35:19;21.40;99.90
7920;DHT22;18778;47.610;9.776;2023-06-22T19:45:07;21.00;99.90
7920;DHT22;18778;47.610;9.776;2023-06-22T19:47:35;20.90;99.90
7920;DHT22;18778;47.610;9.776;2023-06-22T19:50:02;20.90;99.90
7920;DHT22;18778;47.610;9.776;2023-06-22T19:52:40;20.90;99.90
7920;DHT22;18778;47.610;9.776;2023-06-22T19:55:10;20.70;99.90
7920;DHT22;18778;47.610;9.776;2023-06-22T19:57:44;20.80;99.90
7920;DHT22;18778;47.610;9.776;2023-06-22T20:00:12;20.70;99.90
7920;DHT22;18778;47.610;9.776;2023-06-22T20:02:43;20.70;99.90
7920;DHT22;18778;47.610;9.776;2023-06-22T20:05:10;20.60;99.90
7920;DHT22;18778;47.610;9.776;2023-06-22T20:07:41;20.50;99.90
7920;DHT22;18778;47.610;9.776;2023-06-22T20:10:12;20.50;99.90
7920;DHT22;18778;47.610;9.776;2023-06-22T20:15:20;20.40;99.90
7920;DHT22;18778;47.610;9.776;2023-06-22T20:18:00;20.30;99.90
7920;DHT22;18778;47.610;9.776;2023-06-22T20:20:29;20.30;99.90
7920;DHT22;18778;47.610;9.776;2023-06-22T20:22:59;20.20;99.90
7920;DHT22;18778;47.610;9.776;2023-06-22T20:27:52;20.10;99.90
7920;DHT22;18778;47.610;9.776;2023-06-22T20:30:19;20.10;99.90
7920;DHT22;18778;47.610;9.776;2023-06-22T20:32:54;20.10;99.90
7920;DHT22;18778;47.610;9.776;2023-06-22T20:35:22;20.10;99.90
7920;DHT22;18778;47.610;9.776;2023-06-22T20:37:49;20.10;99.90
7920;DHT22;18778;47.610;9.776;2023-06-22T20:40:22;20.10;99.90
7920;DHT22;18778;47.610;9.776;2023-06-22T20:42:55;20.20;99.90
7920;DHT22;18778;47.610;9.776;2023-06-22T20:47:47;20.10;99.90
7920;DHT22;18778;47.610;9.776;2023-06-22T20:50:13;20.20;99.90
7920;DHT22;18778;47.610;9.776;2023-06-22T20:52:38;20.20;99.90
7920;DHT22;18778;47.610;9.776;2023-06-22T20:55:07;20.20;99.90
7920;DHT22;18778;47.610;9.776;2023-06-22T20:57:32;20.20;99.90
7920;DHT22;18778;47.610;9.776;2023-06-22T21:00:00;20.20;99.90
7920;DHT22;18778;47.610;9.776;2023-06-22T21:02:26;20.20;99.90
7920;DHT22;18778;47.610;9.776;2023-06-22T21:04:52;20.10;99.90
7920;DHT22;18778;47.610;9.776;2023-06-22T21:12:11;20.00;99.90
7920;DHT22;18778;47.610;9.776;2023-06-22T21:14:37;20.00;99.90
7920;DHT22;18778;47.610;9.776;2023-06-22T21:17:02;20.00;99.90
7920;DHT22;18778;47.610;9.776;2023-06-22T21:29:14;20.00;99.90
7920;DHT22;18778;47.610;9.776;2023-06-22T21:31:40;19.90;99.90
7920;DHT22;18778;47.610;9.776;2023-06-22T21:34:05;19.80;99.90
7920;DHT22;18778;47.610;9.776;2023-06-22T21:36:31;19.80;99.90
7920;DHT22;18778;47.610;9.776;2023-06-22T21:41:22;19.70;99.90
7920;DHT22;18778;47.610;9.776;2023-06-22T21:43:48;19.60;99.90